LIMJ/GOA METAR and TAF weather

Enter ICAO airport designator
Station Type Date Time Source
LIMJ METAR 2019/10/14 05:20 UTC NOAA

LIMJ 140520Z 04008KT 010V070 9999 FEW015 OVC030 19/15 Q1021


Station Type Date Time Source
LIMJ Decoded METAR 2019/10/14 05:20 UTC NOAA

Genova / Sestri, Italy (LIMJ) 44-25N 008-51E 3M
Oct 14, 2019 - 01:20 AM EDT / 2019.10.14 0520 UTC
Wind: from the NE (040 degrees) at 9 MPH (8 KT) (direction variable):0
Visibility: greater than 7 mile(s):0
Sky conditions: overcast
Temperature: 66 F (19 C)
Dew Point: 59 F (15 C)
Relative Humidity: 77%
Pressure (altimeter): 30.15 in. Hg (1021 hPa)
ob: LIMJ 140520Z 04008KT 010V070 9999 FEW015 OVC030 19/15 Q1021
cycle: 5

Station Type Date Time Source
LIMJ TAF 2019/10/14 06:21 UTC NOAA

TAF LIMJ 140500Z 1406/1506 04008KT 9999 SCT020 BKN050
BECMG 1419/1421 RA
TEMPO 1421/1506 3000 TSRA BKN010CB

Example: see airport list